Bodega Marine Reserve, California Weather observations

Data are for 10 minute period ending at time listed.
 Day   Time   Solar   Ave.   Ave.  Ave.  Vector  Max.   Baro.   Total    
  of    of     Rad.   Air    Rel.  Wind   Wind   Wind  Press.  Precip.   
Year   Day            Temp.  Hum.  Speed  Dir.   Gust                    
2016   (PST)  Kw/m2    F      %     mph   deg.    mph    mb.     in.     
-------------------------------------------------------------------------
 271   20:10   0.00   51.5    94    5.4   305     8.0   1008.5    0.00 
 271   20:20   0.00   51.4    95    4.7   306     6.4   1008.5    0.00 
 271   20:30   0.00   51.2    95    3.8   306     5.6   1008.5    0.00 
 271   20:40   0.00   51.2    95    4.2   302     6.0   1008.5    0.00 
 271   20:50   0.00   51.1    95    4.2   300     6.0   1008.8    0.00 
 271   21:00   0.00   51.2    95    3.5   300     5.8   1008.5    0.00 
 271   21:10   0.00   51.2    95    5.5   303     7.2   1008.5    0.00 
 271   21:20   0.00   51.3    95    3.7   309     5.8   1008.5    0.00 
 271   21:30   0.00   51.5    95    2.9   305     5.7   1008.8    0.00 
 271   21:40   0.00   51.6    95    3.6   312     5.0   1008.8    0.00 
 271   21:50   0.00   51.6    95    2.5   315     4.3   1008.8    0.00 
 271   22:00   0.00   51.6    96    1.2   326     2.5   1008.8    0.00 
 271   22:10   0.00   51.7    96    0.2     5     0.8   1008.8    0.00 
 271   22:20   0.00   51.8    96    0.6    55     1.2   1008.5    0.00 
 271   22:30   0.00   51.8    96    0.8    64     1.3   1008.8    0.00 
 271   22:40   0.00   51.9    96    1.7   103     2.9   1008.8    0.00 
 271   22:50   0.00   52.2    96    1.5   122     2.4   1008.8    0.00 
 271   23:00   0.00   52.3    96    2.0   104     3.4   1008.8    0.00 
 271   23:10   100.00  99999.0   99999  99999.0   99999   99999.0   99999.0   99999.00 
 271   23:20   100.00  99999.0   99999  99999.0   99999   99999.0   99999.0   99999.00 
 271   23:30   100.00  99999.0   99999  99999.0   99999   99999.0   99999.0   99999.00 
 271   23:40   100.00  99999.0   99999  99999.0   99999   99999.0   99999.0   99999.00 
 271   23:50   100.00  99999.0   99999  99999.0   99999   99999.0   99999.0   99999.00 
 272    0:00   0.00   53.5    96    8.2   133    11.0   1008.8    0.00 
 272    0:10   0.00   53.6    96    7.9   142    10.7   1008.8    0.00 
 272    0:20   0.00   53.6    96    8.7   136    11.7   1008.8    0.00 
 272    0:30   0.00   53.7    96    8.4   131    11.2   1008.8    0.00 
 272    0:40   0.00   53.7    96    8.4   129    11.5   1008.8    0.00 
 272    0:50   0.00   53.8    96    8.6   132    12.2   1008.8    0.00 
 272    1:00   0.00   53.9    96    8.9   132    13.9   1008.8    0.00 
 272    1:10   0.00   53.8    96    9.6   136    12.7   1008.8    0.00 
 272    1:20   0.00   53.9    96    9.5   137    12.1   1008.8    0.00 
 272    1:30   0.00   54.0    96    8.6   129    11.8   1008.8    0.00 
 272    1:40   0.00   54.1    96    8.6   133    11.8   1008.8    0.00 
 272    1:50   0.00   54.2    96    9.6   136    12.5   1008.8    0.00 
 272    2:00   0.00   54.2    96    6.5   124    10.7   1008.8    0.00 
 272    2:10   0.00   54.2    96    6.3   124    10.0   1008.8    0.00 
 272    2:20   0.00   54.3    96    5.7   118     9.8   1008.8    0.00 
 272    2:30   0.00   54.3    96    6.2   120    11.9   1008.8    0.00 
 272    2:40   0.00   54.3    96    6.8   123    11.2   1008.8    0.00 
 272    2:50   0.00   54.2    96    7.5   123    11.0   1008.8    0.00 
 272    3:00   0.00   54.2    96    7.5   127    12.5   1008.8    0.00 
 272    3:10   0.00   54.1    96    7.5   124    11.2   1008.5    0.00 
 272    3:20   0.00   54.0    96    6.7   122    11.0   1008.5    0.00 
 272    3:30   0.00   53.9    96    7.0   122    11.5   1008.5    0.00 
 272    3:40   0.00   53.9    96    8.1   127    12.6   1008.5    0.00 
 272    3:50   0.00   53.9    96    7.8   124    12.4   1008.5    0.00 
 272    4:00   0.00   53.8    96    7.5   125    12.0   1008.5    0.00 
 272    4:10   0.00   53.8    96    7.6   127    12.4   1008.8    0.00 
 272    4:20   0.00   53.6    96    7.3   126    12.1   1008.8    0.00 
 272    4:30   0.00   53.5    96    6.4   124     9.9   1008.8    0.00 
 272    4:40   0.00   53.5    96    7.1   132    10.2   1008.8    0.00 
 272    4:50   0.00   53.3    96    6.8   130     9.2   1008.8    0.00 
 272    5:00   0.00   53.3    96    7.0   136    10.2   1008.8    0.00 
 272    5:10   0.00   53.1    96    5.7   135     8.4   1008.8    0.00 
 272    5:20   0.00   52.9    96    3.8   125     6.9   1008.8    0.00 
 272    5:30   0.00   53.0    97    3.3   122     6.1   1008.8    0.00 
 272    5:40   0.00   53.0    96    3.7   132     6.4   1009.1    0.00 
 272    5:50   0.00   53.0    96    3.3   152     5.7   1009.1    0.00 
 272    6:00   0.00   52.8    96    1.9   168     4.5   1009.1    0.00 
 272    6:10   0.00   52.8    96    0.7   140     4.3   1009.1    0.00 
 272    6:20   0.00   52.6    96    1.6   177     4.5   1009.1    0.00 
 272    6:30   0.00   52.4    96    0.4    10     1.0   1009.5    0.00 
 272    6:40   0.00   52.5    97    0.0     0     0.0   1009.5    0.01 
 272    6:50   0.00   52.6    96    0.4   340     1.6   1009.5    0.00 
 272    7:00   0.00   52.7    97    1.2   314     2.1   1009.5    0.00 
 272    7:10   0.00   52.7    97    0.4   323     1.2   1009.5    0.00 
 272    7:20   0.00   52.8    97    0.1    37     0.9   1009.8    0.00 
 272    7:30   0.00   52.9    97    2.2   202     4.2   1009.8    0.00 
 272    7:40   0.01   52.7    97    1.6   253     3.1   1009.8    0.00 
 272    7:50   0.01   52.8    97    1.2   288     2.4   1010.2    0.00 
 272    8:00   0.02   53.0    97    1.8   144     5.3   1010.2    0.00 
 272    8:10   0.03   53.0    97    2.9   184     4.7   1010.2    0.00 
 272    8:20   0.03   53.1    97    2.5   189     5.2   1010.2    0.00 
 272    8:30   0.03   53.3    97    3.3   142     5.2   1010.5    0.00 
 272    8:40   0.03   53.4    97    1.9   181     4.6   1010.5    0.00 
 272    8:50   0.03   53.7    97    3.0   143     5.2   1010.5    0.00 
 272    9:00   0.03   53.5    97    3.5   127     5.1   1010.5    0.00 
 272    9:10   0.03   53.6    97    2.5   137     4.9   1010.5    0.00 
 272    9:20   0.03   53.9    97    2.5   128     5.0   1010.5    0.00 
 272    9:30   0.03   53.8    97    3.1   120     5.3   1010.8    0.00 
 272    9:40   0.05   53.9    97    3.0   122     6.0   1010.8    0.00 
 272    9:50   0.07   53.9    97    2.5   133     4.9   1010.8    0.00 
 272   10:00   0.07   54.2    97    2.1   137     4.7   1010.8    0.00 
 272   10:10   0.07   54.3    97    1.9   113     3.2   1010.8    0.00 
 272   10:20   0.07   54.2    96    2.0   108     3.1   1010.8    0.00 
 272   10:30   0.07   54.4    97    1.0   134     2.4   1010.8    0.00 
 272   10:40   0.09   54.5    96    3.1   128     4.4   1010.8    0.00 
 272   10:50   0.12   54.4    96    3.7   137     5.9   1010.8    0.00 
 272   11:00   0.13   54.5    96    4.5   137     5.8   1010.8    0.00 
 272   11:10   0.12   54.5    96    3.9   129     5.9   1011.2    0.00 
 272   11:20   0.12   54.6    96    2.9   142     5.6   1011.2    0.00 
 272   11:30   0.13   54.6    96    3.0   173     5.8   1011.2    0.00 
 272   11:40   0.14   55.3    96    2.9   248     5.0   1011.2    0.00 
 272   11:50   0.15   55.0    96    3.3   238     5.1   1010.8    0.00 
 272   12:00   0.17   55.1    96    3.4   254     6.1   1010.8    0.00 
 272   12:10   0.18   55.2    96    4.3   276     6.8   1010.8    0.00 
 272   12:20   0.19   55.7    95    4.7   267     7.2   1010.8    0.00 
 272   12:30   0.20   55.4    95    4.0   270     6.4   1010.8    0.00 
 272   12:40   0.21   55.5    94    3.7   284     6.0   1010.8    0.00 
 272   12:50   0.22   56.0    94    3.2   268     5.7   1010.8    0.00 
 272   13:00   0.21   56.3    93    2.6   225     6.9   1010.8    0.00 
 272   13:10   0.22   56.6    92    3.3   235     6.4   1010.8    0.00 
 272   13:20   0.22   57.1    90    2.6   206     6.1   1010.8    0.00 
 272   13:30   0.21   56.9    88    3.1   271     7.2   1010.8    0.00 
 272   13:40   0.21   56.5    88    3.6   303     6.8   1010.8    0.00 
 272   13:50   0.21   56.2    88    3.9   287     6.8   1010.8    0.00 
 272   14:00   0.20   55.7    88    4.4   286     7.9   1010.8    0.00 
 272   14:10   0.22   56.2    87    5.9   273     9.4   1010.8    0.00 
 272   14:20   0.20   56.0    86    6.5   278     9.4   1010.8    0.00 
 272   14:30   0.21   55.8    87    6.4   280     9.5   1010.5    0.00 
 272   14:40   0.21   55.9    86    7.6   290    10.3   1010.5    0.00 
 272   14:50   0.21   55.5    87    8.1   286    11.0   1010.5    0.00 
 272   15:00   0.22   55.7    85    8.0   287    10.6   1010.5    0.00 
 272   15:10   0.20   55.4    86    6.9   286    10.2   1010.5    0.00 
 272   15:20   0.20   55.1    86    6.9   295     9.5   1010.5    0.00 
 272   15:30   0.19   55.1    86    8.5   297    12.2   1010.2    0.00 
 272   15:40   0.18   54.8    87   10.6   306    15.7   1010.2    0.00 
 272   15:50   0.14   54.7    88   10.8   309    14.4   1010.2    0.00 
 272   16:00   0.12   55.0    87   11.4   304    14.9   1010.2    0.00 
 272   16:10   0.12   55.0    87   11.3   290    15.7   1010.2    0.00 
 272   16:20   0.12   54.8    87   12.2   295    16.8   1010.2    0.00 
 272   16:30   0.12   54.4    88   12.1   288    16.7   1010.2    0.00 
 272   16:40   0.10   54.2    89   11.2   290    14.8   1010.2    0.00 
 272   16:50   0.08   54.2    89   12.1   290    16.1   1010.2    0.00 
 272   17:00   0.07   54.2    89   11.5   293    17.0   1009.8    0.00 
 272   17:10   0.07   53.9    90   12.4   304    17.2   1009.8    0.00 
 272   17:20   0.07   53.9    90   11.4   301    15.9   1009.8    0.00 
 272   17:30   0.05   53.9    90   12.0   293    16.7   1009.8    0.00 
 272   17:40   0.05   53.8    90   11.8   300    16.6   1009.8    0.00 
 272   17:50   0.03   53.7    91   11.4   294    15.2   1009.8    0.00 
 272   18:00   0.03   53.5    91   11.4   289    15.4   1010.2    0.00 
 272   18:10   0.02   53.3    92   12.7   289    16.6   1009.8    0.00 
 272   18:20   0.01   53.2    92   12.2   292    16.1   1009.8    0.00 
 272   18:30   0.01   53.0    92   12.6   293    16.8   1010.2    0.00 
 272   18:40   0.01   52.9    92   11.8   291    15.9   1010.2    0.00 
 272   18:50   0.00   52.9    93   12.0   292    16.2   1009.8    0.00 
 272   19:00   0.00   52.8    93   11.2   293    16.0   1009.8    0.00 
 272   19:10   0.00   52.7    93   12.6   294    16.7   1009.8    0.00 
 272   19:20   0.00   52.6    93   11.3   294    15.1   1009.8    0.00 
 272   19:30   0.00   52.6    93   11.4   292    16.5   1010.2    0.00 
 272   19:40   0.00   52.5    94   10.7   288    14.4   1010.2    0.00 
 272   19:50   0.00   52.5    94    9.9   291    13.3   1010.2    0.00 
 272   20:00   0.00   52.4    94   10.3   286    14.0   1010.5    0.00 

Return to Bodega Marine Reserve graphs page.


Western Regional Climate Center,wrcc@dri.edu